createdAt,value
2022-12-05T21:28:20.248Z,17.58
2022-12-05T21:30:51.968Z,17.30
2022-12-05T21:33:28.960Z,19.85
2022-12-05T21:35:56.855Z,31.38
2022-12-05T21:38:30.234Z,38.33
2022-12-05T21:41:06.622Z,29.55
2022-12-05T21:43:36.520Z,23.05
2022-12-05T21:46:11.286Z,26.23
2022-12-05T21:48:38.704Z,24.65
2022-12-05T21:51:08.695Z,19.55
2022-12-05T21:53:46.897Z,15.55
2022-12-05T21:56:19.152Z,14.07
2022-12-05T21:58:55.197Z,12.52
2022-12-05T22:01:25.473Z,12.82
2022-12-05T22:04:09.463Z,10.80
2022-12-05T22:06:36.431Z,9.23
2022-12-05T22:09:10.158Z,9.30
2022-12-05T22:11:37.396Z,10.27
2022-12-05T22:14:14.346Z,11.25
2022-12-05T22:16:41.561Z,10.90
2022-12-05T22:19:11.226Z,10.63
2022-12-05T22:21:45.147Z,11.05
2022-12-05T22:24:18.202Z,9.50
2022-12-05T22:26:45.592Z,10.13
2022-12-05T22:29:42.173Z,10.25
2022-12-05T22:32:20.336Z,11.20
2022-12-05T22:35:00.581Z,11.70
2022-12-05T22:37:45.035Z,10.63
2022-12-05T22:40:17.152Z,11.27
2022-12-05T22:42:53.595Z,13.15
2022-12-05T22:45:30.257Z,13.10
2022-12-05T22:47:57.527Z,12.88
2022-12-05T22:50:31.352Z,12.93
2022-12-05T22:53:11.498Z,11.25
2022-12-05T22:55:45.306Z,9.85
2022-12-05T22:58:19.362Z,9.88
2022-12-05T23:00:46.738Z,10.80
2022-12-05T23:03:23.579Z,10.65
2022-12-05T23:05:57.263Z,10.25
2022-12-05T23:08:24.308Z,11.00
2022-12-05T23:10:58.321Z,10.07
2022-12-05T23:13:25.298Z,10.63
2022-12-05T23:15:59.256Z,10.68
2022-12-05T23:18:26.323Z,10.23
2022-12-05T23:20:53.313Z,9.70
2022-12-05T23:23:27.206Z,10.43
2022-12-05T23:25:57.170Z,10.23
2022-12-05T23:28:31.186Z,8.93
2022-12-05T23:31:11.346Z,8.57
2022-12-05T23:33:39.213Z,7.97
2022-12-05T23:36:07.101Z,7.75
2022-12-05T23:38:42.153Z,7.82
2022-12-05T23:41:18.168Z,6.45
2022-12-05T23:43:52.242Z,7.43
2022-12-05T23:46:22.631Z,6.97
2022-12-05T23:48:56.270Z,7.82
2022-12-05T23:51:28.637Z,7.38
2022-12-05T23:54:07.246Z,6.93
